sensor_id;sensor_type;location;lat;lon;timestamp;temperature;humidity
59162;DHT22;44942;48.936;8.260;2023-05-07T00:01:52;21.80;54.10
59162;DHT22;44942;48.936;8.260;2023-05-07T00:06:53;21.80;54.10
59162;DHT22;44942;48.936;8.260;2023-05-07T00:11:54;21.80;54.10
59162;DHT22;44942;48.936;8.260;2023-05-07T00:16:55;21.80;54.70
59162;DHT22;44942;48.936;8.260;2023-05-07T00:21:56;21.80;54.00
59162;DHT22;44942;48.936;8.260;2023-05-07T00:26:57;21.70;53.90
59162;DHT22;44942;48.936;8.260;2023-05-07T00:31:58;21.70;53.90
59162;DHT22;44942;48.936;8.260;2023-05-07T00:36:58;21.70;53.90
59162;DHT22;44942;48.936;8.260;2023-05-07T00:41:59;21.70;53.90
59162;DHT22;44942;48.936;8.260;2023-05-07T00:47:01;21.60;53.80
59162;DHT22;44942;48.936;8.260;2023-05-07T00:52:02;21.60;53.80
59162;DHT22;44942;48.936;8.260;2023-05-07T00:57:03;21.60;53.70
59162;DHT22;44942;48.936;8.260;2023-05-07T01:02:04;21.50;53.70
59162;DHT22;44942;48.936;8.260;2023-05-07T01:07:05;21.50;53.80
59162;DHT22;44942;48.936;8.260;2023-05-07T01:12:06;21.50;53.90
59162;DHT22;44942;48.936;8.260;2023-05-07T01:17:07;21.40;53.90
59162;DHT22;44942;48.936;8.260;2023-05-07T01:22:09;21.40;53.90
59162;DHT22;44942;48.936;8.260;2023-05-07T01:27:14;21.40;53.90
59162;DHT22;44942;48.936;8.260;2023-05-07T01:32:19;21.40;53.90
59162;DHT22;44942;48.936;8.260;2023-05-07T01:37:22;21.30;54.10
59162;DHT22;44942;48.936;8.260;2023-05-07T01:42:23;21.30;54.20
59162;DHT22;44942;48.936;8.260;2023-05-07T01:47:24;21.20;54.20
59162;DHT22;44942;48.936;8.260;2023-05-07T01:52:25;21.20;54.20
59162;DHT22;44942;48.936;8.260;2023-05-07T01:57:27;21.20;54.30
59162;DHT22;44942;48.936;8.260;2023-05-07T02:02:28;21.20;54.30
59162;DHT22;44942;48.936;8.260;2023-05-07T02:07:28;21.10;55.00
59162;DHT22;44942;48.936;8.260;2023-05-07T02:12:29;21.10;54.30
59162;DHT22;44942;48.936;8.260;2023-05-07T02:17:30;21.10;54.30
59162;DHT22;44942;48.936;8.260;2023-05-07T02:22:32;21.10;54.40
59162;DHT22;44942;48.936;8.260;2023-05-07T02:27:32;21.10;54.50
59162;DHT22;44942;48.936;8.260;2023-05-07T02:32:33;21.10;54.50
59162;DHT22;44942;48.936;8.260;2023-05-07T02:37:33;21.00;54.50
59162;DHT22;44942;48.936;8.260;2023-05-07T02:42:34;21.00;54.50
59162;DHT22;44942;48.936;8.260;2023-05-07T02:47:34;21.00;54.50
59162;DHT22;44942;48.936;8.260;2023-05-07T02:52:35;20.90;54.60
59162;DHT22;44942;48.936;8.260;2023-05-07T02:57:35;20.90;54.60
59162;DHT22;44942;48.936;8.260;2023-05-07T03:02:36;20.90;54.70
59162;DHT22;44942;48.936;8.260;2023-05-07T03:07:36;20.80;54.70
59162;DHT22;44942;48.936;8.260;2023-05-07T03:12:37;20.80;54.70
59162;DHT22;44942;48.936;8.260;2023-05-07T03:17:38;20.80;54.80
59162;DHT22;44942;48.936;8.260;2023-05-07T03:22:39;20.80;54.80
59162;DHT22;44942;48.936;8.260;2023-05-07T03:27:40;20.70;54.80
59162;DHT22;44942;48.936;8.260;2023-05-07T03:32:42;20.70;54.90
59162;DHT22;44942;48.936;8.260;2023-05-07T03:37:42;20.70;55.00
59162;DHT22;44942;48.936;8.260;2023-05-07T03:42:43;20.70;54.90
59162;DHT22;44942;48.936;8.260;2023-05-07T03:47:43;20.60;54.90
59162;DHT22;44942;48.936;8.260;2023-05-07T03:52:44;20.60;54.80
59162;DHT22;44942;48.936;8.260;2023-05-07T03:57:45;20.60;54.80
59162;DHT22;44942;48.936;8.260;2023-05-07T04:02:45;20.50;55.40
59162;DHT22;44942;48.936;8.260;2023-05-07T04:07:46;20.50;54.90
59162;DHT22;44942;48.936;8.260;2023-05-07T04:12:46;20.50;54.90
59162;DHT22;44942;48.936;8.260;2023-05-07T04:17:47;20.50;54.90
59162;DHT22;44942;48.936;8.260;2023-05-07T04:22:48;20.50;55.00
59162;DHT22;44942;48.936;8.260;2023-05-07T04:27:48;20.50;55.10
59162;DHT22;44942;48.936;8.260;2023-05-07T04:32:55;20.40;55.20
59162;DHT22;44942;48.936;8.260;2023-05-07T04:37:57;20.40;55.30
59162;DHT22;44942;48.936;8.260;2023-05-07T04:42:57;20.40;55.30
59162;DHT22;44942;48.936;8.260;2023-05-07T04:47:58;20.30;55.20
59162;DHT22;44942;48.936;8.260;2023-05-07T04:52:58;20.30;55.40
59162;DHT22;44942;48.936;8.260;2023-05-07T04:57:59;20.30;55.60
59162;DHT22;44942;48.936;8.260;2023-05-07T05:03:01;20.20;55.50
59162;DHT22;44942;48.936;8.260;2023-05-07T05:08:02;20.20;55.60
59162;DHT22;44942;48.936;8.260;2023-05-07T05:13:03;20.20;55.60
59162;DHT22;44942;48.936;8.260;2023-05-07T05:18:03;20.20;55.80
59162;DHT22;44942;48.936;8.260;2023-05-07T05:23:04;20.20;55.90
59162;DHT22;44942;48.936;8.260;2023-05-07T05:28:04;20.20;56.00
59162;DHT22;44942;48.936;8.260;2023-05-07T05:33:05;20.20;56.10
59162;DHT22;44942;48.936;8.260;2023-05-07T05:38:06;20.30;56.30
59162;DHT22;44942;48.936;8.260;2023-05-07T05:43:06;20.30;56.50
59162;DHT22;44942;48.936;8.260;2023-05-07T05:48:07;20.30;56.60
59162;DHT22;44942;48.936;8.260;2023-05-07T05:53:08;20.30;56.80
59162;DHT22;44942;48.936;8.260;2023-05-07T05:58:09;20.40;56.60
59162;DHT22;44942;48.936;8.260;2023-05-07T06:03:10;20.40;56.60
59162;DHT22;44942;48.936;8.260;2023-05-07T06:08:11;20.40;56.70
59162;DHT22;44942;48.936;8.260;2023-05-07T06:13:14;20.40;56.80
59162;DHT22;44942;48.936;8.260;2023-05-07T06:18:14;20.50;56.90
59162;DHT22;44942;48.936;8.260;2023-05-07T06:23:15;20.50;57.10
59162;DHT22;44942;48.936;8.260;2023-05-07T06:28:15;20.60;57.00
59162;DHT22;44942;48.936;8.260;2023-05-07T06:33:16;20.70;56.90
59162;DHT22;44942;48.936;8.260;2023-05-07T06:38:17;20.80;56.70
59162;DHT22;44942;48.936;8.260;2023-05-07T06:43:17;20.80;56.70
59162;DHT22;44942;48.936;8.260;2023-05-07T06:48:18;20.90;56.60
59162;DHT22;44942;48.936;8.260;2023-05-07T06:53:21;21.00;56.50
59162;DHT22;44942;48.936;8.260;2023-05-07T06:58:22;21.00;56.40
59162;DHT22;44942;48.936;8.260;2023-05-07T07:03:23;21.00;56.40
59162;DHT22;44942;48.936;8.260;2023-05-07T07:08:23;21.00;56.50
59162;DHT22;44942;48.936;8.260;2023-05-07T07:13:24;20.90;56.20
59162;DHT22;44942;48.936;8.260;2023-05-07T07:18:24;21.00;56.30
59162;DHT22;44942;48.936;8.260;2023-05-07T07:23:25;21.00;56.30
59162;DHT22;44942;48.936;8.260;2023-05-07T07:28:26;21.00;56.40
59162;DHT22;44942;48.936;8.260;2023-05-07T07:33:26;21.00;56.40
59162;DHT22;44942;48.936;8.260;2023-05-07T07:38:27;21.00;56.50
59162;DHT22;44942;48.936;8.260;2023-05-07T07:43:28;21.10;56.60
59162;DHT22;44942;48.936;8.260;2023-05-07T07:48:29;21.10;56.80
59162;DHT22;44942;48.936;8.260;2023-05-07T07:53:29;21.10;56.80
59162;DHT22;44942;48.936;8.260;2023-05-07T07:58:30;21.10;56.70
59162;DHT22;44942;48.936;8.260;2023-05-07T08:03:31;21.10;56.60
59162;DHT22;44942;48.936;8.260;2023-05-07T08:08:32;21.10;56.60
59162;DHT22;44942;48.936;8.260;2023-05-07T08:13:33;21.20;56.50
59162;DHT22;44942;48.936;8.260;2023-05-07T08:18:34;21.20;56.30
59162;DHT22;44942;48.936;8.260;2023-05-07T08:23:34;21.20;56.30
59162;DHT22;44942;48.936;8.260;2023-05-07T08:28:35;21.20;57.10
59162;DHT22;44942;48.936;8.260;2023-05-07T08:33:36;21.30;56.30
59162;DHT22;44942;48.936;8.260;2023-05-07T08:38:37;21.30;56.20
59162;DHT22;44942;48.936;8.260;2023-05-07T08:43:40;21.40;56.20
59162;DHT22;44942;48.936;8.260;2023-05-07T08:48:41;21.40;56.20
59162;DHT22;44942;48.936;8.260;2023-05-07T08:53:42;21.40;56.10
59162;DHT22;44942;48.936;8.260;2023-05-07T08:58:43;21.40;56.10
59162;DHT22;44942;48.936;8.260;2023-05-07T09:03:45;21.50;56.10
59162;DHT22;44942;48.936;8.260;2023-05-07T09:08:53;21.50;55.90
59162;DHT22;44942;48.936;8.260;2023-05-07T09:13:55;21.50;56.10
59162;DHT22;44942;48.936;8.260;2023-05-07T09:18:58;21.60;56.00
59162;DHT22;44942;48.936;8.260;2023-05-07T09:24:00;21.60;55.90
59162;DHT22;44942;48.936;8.260;2023-05-07T09:29:01;21.60;55.80
59162;DHT22;44942;48.936;8.260;2023-05-07T09:34:01;21.60;55.80
59162;DHT22;44942;48.936;8.260;2023-05-07T09:39:05;21.70;55.90
59162;DHT22;44942;48.936;8.260;2023-05-07T09:44:05;21.70;55.90
59162;DHT22;44942;48.936;8.260;2023-05-07T09:49:07;21.70;55.80
59162;DHT22;44942;48.936;8.260;2023-05-07T09:54:14;21.70;55.80
59162;DHT22;44942;48.936;8.260;2023-05-07T09:59:16;21.80;55.80
59162;DHT22;44942;48.936;8.260;2023-05-07T10:04:17;21.80;55.80
59162;DHT22;44942;48.936;8.260;2023-05-07T10:09:18;21.80;55.80
59162;DHT22;44942;48.936;8.260;2023-05-07T10:14:20;21.90;55.80
59162;DHT22;44942;48.936;8.260;2023-05-07T10:19:22;21.90;55.70
59162;DHT22;44942;48.936;8.260;2023-05-07T10:24:29;21.90;55.70
59162;DHT22;44942;48.936;8.260;2023-05-07T10:34:38;22.00;55.80
59162;DHT22;44942;48.936;8.260;2023-05-07T10:39:41;22.00;55.80
59162;DHT22;44942;48.936;8.260;2023-05-07T10:44:42;22.00;55.80
59162;DHT22;44942;48.936;8.260;2023-05-07T10:54:46;22.10;55.90
59162;DHT22;44942;48.936;8.260;2023-05-07T10:59:47;22.10;55.80
59162;DHT22;44942;48.936;8.260;2023-05-07T11:05:25;22.20;55.80
59162;DHT22;44942;48.936;8.260;2023-05-07T11:10:55;22.30;55.30
59162;DHT22;44942;48.936;8.260;2023-05-07T11:15:56;22.30;55.20
59162;DHT22;44942;48.936;8.260;2023-05-07T11:20:59;22.30;55.10
59162;DHT22;44942;48.936;8.260;2023-05-07T11:26:09;22.40;55.00
59162;DHT22;44942;48.936;8.260;2023-05-07T11:31:11;22.40;54.80
59162;DHT22;44942;48.936;8.260;2023-05-07T11:36:11;22.50;54.80
59162;DHT22;44942;48.936;8.260;2023-05-07T11:41:12;22.50;54.80
59162;DHT22;44942;48.936;8.260;2023-05-07T11:46:13;22.50;54.60
59162;DHT22;44942;48.936;8.260;2023-05-07T11:51:19;22.60;54.60
59162;DHT22;44942;48.936;8.260;2023-05-07T11:56:19;22.70;54.60
59162;DHT22;44942;48.936;8.260;2023-05-07T12:01:20;22.70;54.60
59162;DHT22;44942;48.936;8.260;2023-05-07T12:06:21;22.70;54.60
59162;DHT22;44942;48.936;8.260;2023-05-07T12:11:23;22.70;54.70
59162;DHT22;44942;48.936;8.260;2023-05-07T12:16:24;22.70;54.80
59162;DHT22;44942;48.936;8.260;2023-05-07T12:21:25;22.70;55.00
59162;DHT22;44942;48.936;8.260;2023-05-07T12:26:26;22.70;54.90
59162;DHT22;44942;48.936;8.260;2023-05-07T12:31:30;22.80;54.90
59162;DHT22;44942;48.936;8.260;2023-05-07T12:36:38;22.80;54.90
59162;DHT22;44942;48.936;8.260;2023-05-07T12:41:54;22.80;54.90
59162;DHT22;44942;48.936;8.260;2023-05-07T12:46:55;22.80;54.90
59162;DHT22;44942;48.936;8.260;2023-05-07T12:51:56;22.80;54.80
59162;DHT22;44942;48.936;8.260;2023-05-07T12:57:07;22.80;54.80
59162;DHT22;44942;48.936;8.260;2023-05-07T13:02:08;22.90;54.90
59162;DHT22;44942;48.936;8.260;2023-05-07T13:07:09;22.90;54.80
59162;DHT22;44942;48.936;8.260;2023-05-07T13:12:09;22.90;54.80
59162;DHT22;44942;48.936;8.260;2023-05-07T13:17:10;22.90;54.70
59162;DHT22;44942;48.936;8.260;2023-05-07T13:22:10;22.90;54.80
59162;DHT22;44942;48.936;8.260;2023-05-07T13:27:11;22.90;54.70
59162;DHT22;44942;48.936;8.260;2023-05-07T13:32:11;22.90;54.70
59162;DHT22;44942;48.936;8.260;2023-05-07T13:37:12;23.00;54.70
59162;DHT22;44942;48.936;8.260;2023-05-07T13:42:12;23.00;54.70
59162;DHT22;44942;48.936;8.260;2023-05-07T13:47:13;23.00;54.70
59162;DHT22;44942;48.936;8.260;2023-05-07T13:52:14;23.00;54.70
59162;DHT22;44942;48.936;8.260;2023-05-07T13:57:14;23.00;54.70
59162;DHT22;44942;48.936;8.260;2023-05-07T14:02:15;23.00;54.70
59162;DHT22;44942;48.936;8.260;2023-05-07T14:07:16;23.00;54.70
59162;DHT22;44942;48.936;8.260;2023-05-07T14:12:16;23.00;54.70
59162;DHT22;44942;48.936;8.260;2023-05-07T14:17:17;23.00;54.70
59162;DHT22;44942;48.936;8.260;2023-05-07T14:22:18;23.00;54.70
59162;DHT22;44942;48.936;8.260;2023-05-07T14:27:18;23.00;54.70
59162;DHT22;44942;48.936;8.260;2023-05-07T14:32:19;23.10;54.70
59162;DHT22;44942;48.936;8.260;2023-05-07T14:37:20;23.10;54.70
59162;DHT22;44942;48.936;8.260;2023-05-07T14:42:21;23.10;54.80
59162;DHT22;44942;48.936;8.260;2023-05-07T14:47:21;23.10;54.80
59162;DHT22;44942;48.936;8.260;2023-05-07T14:52:22;23.10;54.70
59162;DHT22;44942;48.936;8.260;2023-05-07T14:57:22;23.10;54.80
59162;DHT22;44942;48.936;8.260;2023-05-07T15:02:23;23.10;54.60
59162;DHT22;44942;48.936;8.260;2023-05-07T15:07:26;23.10;54.60
59162;DHT22;44942;48.936;8.260;2023-05-07T15:12:27;23.10;54.60
59162;DHT22;44942;48.936;8.260;2023-05-07T15:17:27;23.10;54.60
59162;DHT22;44942;48.936;8.260;2023-05-07T15:22:28;23.10;54.50
59162;DHT22;44942;48.936;8.260;2023-05-07T15:27:30;23.10;54.60
59162;DHT22;44942;48.936;8.260;2023-05-07T15:32:31;23.20;54.50
59162;DHT22;44942;48.936;8.260;2023-05-07T15:37:32;23.10;54.40
59162;DHT22;44942;48.936;8.260;2023-05-07T15:42:33;23.20;54.50
59162;DHT22;44942;48.936;8.260;2023-05-07T15:47:34;23.20;54.40
59162;DHT22;44942;48.936;8.260;2023-05-07T15:52:35;23.10;54.40
59162;DHT22;44942;48.936;8.260;2023-05-07T15:57:35;23.20;54.50
59162;DHT22;44942;48.936;8.260;2023-05-07T16:02:36;23.20;54.40
59162;DHT22;44942;48.936;8.260;2023-05-07T16:07:37;23.20;54.40
59162;DHT22;44942;48.936;8.260;2023-05-07T16:12:40;23.10;54.30
59162;DHT22;44942;48.936;8.260;2023-05-07T16:17:40;23.20;54.30
59162;DHT22;44942;48.936;8.260;2023-05-07T16:22:43;23.20;54.30
59162;DHT22;44942;48.936;8.260;2023-05-07T16:27:44;23.20;54.30
59162;DHT22;44942;48.936;8.260;2023-05-07T16:32:47;23.20;54.30
59162;DHT22;44942;48.936;8.260;2023-05-07T16:37:49;23.20;54.40
59162;DHT22;44942;48.936;8.260;2023-05-07T16:42:49;23.20;54.30
59162;DHT22;44942;48.936;8.260;2023-05-07T16:47:50;23.20;54.30
59162;DHT22;44942;48.936;8.260;2023-05-07T16:52:51;23.20;54.20
59162;DHT22;44942;48.936;8.260;2023-05-07T16:57:51;23.20;54.20
59162;DHT22;44942;48.936;8.260;2023-05-07T17:02:52;23.20;54.20
59162;DHT22;44942;48.936;8.260;2023-05-07T17:07:53;23.20;54.20
59162;DHT22;44942;48.936;8.260;2023-05-07T17:12:54;23.20;54.20
59162;DHT22;44942;48.936;8.260;2023-05-07T17:17:55;23.20;54.30
59162;DHT22;44942;48.936;8.260;2023-05-07T17:22:55;23.20;54.30
59162;DHT22;44942;48.936;8.260;2023-05-07T17:27:56;23.20;54.30
59162;DHT22;44942;48.936;8.260;2023-05-07T17:32:56;23.20;54.30
59162;DHT22;44942;48.936;8.260;2023-05-07T17:37:58;23.20;54.30
59162;DHT22;44942;48.936;8.260;2023-05-07T17:42:59;23.20;54.40
59162;DHT22;44942;48.936;8.260;2023-05-07T17:48:01;23.20;54.40
59162;DHT22;44942;48.936;8.260;2023-05-07T17:53:02;23.20;54.40
59162;DHT22;44942;48.936;8.260;2023-05-07T17:58:05;23.20;54.50
59162;DHT22;44942;48.936;8.260;2023-05-07T18:03:06;23.20;54.80
59162;DHT22;44942;48.936;8.260;2023-05-07T18:08:10;23.10;55.00
59162;DHT22;44942;48.936;8.260;2023-05-07T18:13:10;23.10;55.20
59162;DHT22;44942;48.936;8.260;2023-05-07T18:18:11;23.20;55.60
59162;DHT22;44942;48.936;8.260;2023-05-07T18:23:12;23.20;55.60
59162;DHT22;44942;48.936;8.260;2023-05-07T18:28:13;23.20;55.80
59162;DHT22;44942;48.936;8.260;2023-05-07T18:33:13;23.20;55.90
59162;DHT22;44942;48.936;8.260;2023-05-07T18:38:14;23.20;56.10
59162;DHT22;44942;48.936;8.260;2023-05-07T18:43:14;23.20;56.10
59162;DHT22;44942;48.936;8.260;2023-05-07T18:48:15;23.20;56.20
59162;DHT22;44942;48.936;8.260;2023-05-07T18:53:16;23.20;56.30
59162;DHT22;44942;48.936;8.260;2023-05-07T18:58:17;23.20;56.40
59162;DHT22;44942;48.936;8.260;2023-05-07T19:03:19;23.20;56.50
59162;DHT22;44942;48.936;8.260;2023-05-07T19:08:19;23.20;56.50
59162;DHT22;44942;48.936;8.260;2023-05-07T19:13:20;23.20;56.50
59162;DHT22;44942;48.936;8.260;2023-05-07T19:18:22;23.20;56.60
59162;DHT22;44942;48.936;8.260;2023-05-07T19:23:23;23.20;56.70
59162;DHT22;44942;48.936;8.260;2023-05-07T19:28:24;23.20;56.90
59162;DHT22;44942;48.936;8.260;2023-05-07T19:33:25;23.20;56.90
59162;DHT22;44942;48.936;8.260;2023-05-07T19:38:28;23.20;56.90
59162;DHT22;44942;48.936;8.260;2023-05-07T19:43:32;23.20;57.00
59162;DHT22;44942;48.936;8.260;2023-05-07T19:48:38;23.20;57.00
59162;DHT22;44942;48.936;8.260;2023-05-07T19:53:39;23.20;56.90
59162;DHT22;44942;48.936;8.260;2023-05-07T19:58:39;23.20;57.00
59162;DHT22;44942;48.936;8.260;2023-05-07T20:03:41;23.20;57.00
59162;DHT22;44942;48.936;8.260;2023-05-07T20:08:41;23.20;57.10
59162;DHT22;44942;48.936;8.260;2023-05-07T20:13:44;23.20;57.10
59162;DHT22;44942;48.936;8.260;2023-05-07T20:18:44;23.20;57.10
59162;DHT22;44942;48.936;8.260;2023-05-07T20:23:45;23.20;57.10
59162;DHT22;44942;48.936;8.260;2023-05-07T20:28:45;23.20;57.10
59162;DHT22;44942;48.936;8.260;2023-05-07T20:33:46;23.20;57.10
59162;DHT22;44942;48.936;8.260;2023-05-07T20:38:46;23.20;57.10
59162;DHT22;44942;48.936;8.260;2023-05-07T20:43:47;23.20;57.10
59162;DHT22;44942;48.936;8.260;2023-05-07T20:48:48;23.20;57.90
59162;DHT22;44942;48.936;8.260;2023-05-07T20:53:49;23.30;57.30
59162;DHT22;44942;48.936;8.260;2023-05-07T20:58:49;23.30;57.30
59162;DHT22;44942;48.936;8.260;2023-05-07T21:03:50;23.30;57.40
59162;DHT22;44942;48.936;8.260;2023-05-07T21:08:53;23.20;57.30
59162;DHT22;44942;48.936;8.260;2023-05-07T21:13:53;23.20;57.40
59162;DHT22;44942;48.936;8.260;2023-05-07T21:18:54;23.20;57.40
59162;DHT22;44942;48.936;8.260;2023-05-07T21:23:55;23.30;57.40
59162;DHT22;44942;48.936;8.260;2023-05-07T21:28:59;23.30;57.40
59162;DHT22;44942;48.936;8.260;2023-05-07T21:34:00;23.20;57.40
59162;DHT22;44942;48.936;8.260;2023-05-07T21:39:00;23.30;57.40
59162;DHT22;44942;48.936;8.260;2023-05-07T21:44:04;23.20;57.40
59162;DHT22;44942;48.936;8.260;2023-05-07T21:49:05;23.20;57.40
59162;DHT22;44942;48.936;8.260;2023-05-07T21:54:05;23.20;57.40
59162;DHT22;44942;48.936;8.260;2023-05-07T21:59:06;23.20;57.50
59162;DHT22;44942;48.936;8.260;2023-05-07T22:04:07;23.20;57.50
59162;DHT22;44942;48.936;8.260;2023-05-07T22:09:08;23.20;57.40
59162;DHT22;44942;48.936;8.260;2023-05-07T22:14:09;23.20;57.50
59162;DHT22;44942;48.936;8.260;2023-05-07T22:19:10;23.20;57.40
59162;DHT22;44942;48.936;8.260;2023-05-07T22:24:11;23.20;57.50
59162;DHT22;44942;48.936;8.260;2023-05-07T22:29:11;23.20;57.60
59162;DHT22;44942;48.936;8.260;2023-05-07T22:34:12;23.20;57.60
59162;DHT22;44942;48.936;8.260;2023-05-07T22:39:12;23.20;57.60
59162;DHT22;44942;48.936;8.260;2023-05-07T22:44:13;23.20;57.70
59162;DHT22;44942;48.936;8.260;2023-05-07T22:49:13;23.20;57.80
59162;DHT22;44942;48.936;8.260;2023-05-07T22:54:14;23.20;57.80
59162;DHT22;44942;48.936;8.260;2023-05-07T22:59:15;23.20;57.80
59162;DHT22;44942;48.936;8.260;2023-05-07T23:04:15;23.20;57.90
59162;DHT22;44942;48.936;8.260;2023-05-07T23:09:16;23.20;57.90
59162;DHT22;44942;48.936;8.260;2023-05-07T23:14:16;23.10;57.90
59162;DHT22;44942;48.936;8.260;2023-05-07T23:19:17;23.20;57.90
59162;DHT22;44942;48.936;8.260;2023-05-07T23:24:18;23.20;57.90
59162;DHT22;44942;48.936;8.260;2023-05-07T23:29:18;23.20;57.90
59162;DHT22;44942;48.936;8.260;2023-05-07T23:34:19;23.20;57.90
59162;DHT22;44942;48.936;8.260;2023-05-07T23:39:23;23.20;57.90
59162;DHT22;44942;48.936;8.260;2023-05-07T23:44:23;23.20;57.90
59162;DHT22;44942;48.936;8.260;2023-05-07T23:49:24;23.20;57.90
59162;DHT22;44942;48.936;8.260;2023-05-07T23:54:24;23.20;58.00
59162;DHT22;44942;48.936;8.260;2023-05-07T23:59:25;23.20;58.00
